Portada
METAR-TAF:

METAR-TAF

Aeropuertos :

Aeropuerto Internacional de Dakar-Yoff/Léopold Sédar Senghor

Dakar, Senegal

latitud: 14-44N, longitud: 017-30W, altitud: 27 m

Observación

El informe se hizo hace 1 hora y 14 minutos, a las 03:00 UTC
Viento 12 kt del norte
Temperatura 21°C
Humedad 88%
Presión 1014 hPa
Visibilidad 10 km o más
sin nubes por debajo de 1500 m y sin presencia de cumulonimbus.

METAR: GOOY 240300Z 36012KT CAVOK 21/19 Q1014

Hora: 04:14 (04:14 UTC)

Pronóstico

El informe se hizo hace 4 horas y 44 minutos, a las 23:30 UTC
Pronóstico válido del 24 a las 00 UTC al 25 a las 06 UTC
Viento 14 kt del norte
Visibilidad: 8000 m

TAF: GOOY 232330Z 2400/2506 36014KT 8000 NSC

Observaciones y pronósticos meteorológicos de más de 4000 aeropuertos (mensajes METAR y TAF).

Los puntos amarillos y rojos representan las estaciones disponibles.

Ponga el ratón en el punto deseado para ver el nombre de la estación.

Haga clic para ver las observaciones y los pronósticos meteorológicos.

Para cambiar el mapa : haga clic en los botones verdes con una cruz de color negro para hacer un zoom, en el botón verde con un guión para alejar o en las flechas verdes para mapas adyacentes.


METAR-TAF: